createdAt,value
2022-08-23T00:01:24.252Z,75.29
2022-08-23T00:03:55.804Z,75.05
2022-08-23T00:06:24.549Z,75.24
2022-08-23T00:08:53.738Z,75.05
2022-08-23T00:11:32.840Z,74.77
2022-08-23T00:14:03.036Z,74.22
2022-08-23T00:16:31.264Z,73.87
2022-08-23T00:19:00.850Z,73.90
2022-08-23T00:21:29.401Z,73.94
2022-08-23T00:23:59.531Z,74.10
2022-08-23T00:26:27.723Z,74.54
2022-08-23T00:28:55.800Z,74.57
2022-08-23T00:31:23.889Z,74.50
2022-08-23T00:33:52.135Z,74.55
2022-08-23T00:36:21.601Z,74.83
2022-08-23T00:38:49.944Z,74.98
2022-08-23T00:41:18.163Z,75.00
2022-08-23T00:44:03.817Z,74.81
2022-08-23T00:47:00.838Z,75.28
2022-08-23T00:49:31.106Z,75.08
2022-08-23T00:52:07.234Z,74.88
2022-08-23T00:54:37.543Z,74.96
2022-08-23T00:57:09.037Z,74.76
2022-08-23T00:59:37.307Z,74.83
2022-08-23T01:02:09.916Z,74.85
2022-08-23T01:04:44.953Z,74.98
2022-08-23T01:07:20.399Z,74.88
2022-08-23T01:09:51.875Z,75.03
2022-08-23T01:12:32.946Z,75.22
2022-08-23T01:15:05.231Z,75.63
2022-08-23T01:17:40.284Z,75.60
2022-08-23T01:20:12.054Z,75.89
2022-08-23T01:22:50.897Z,76.08
2022-08-23T01:25:24.014Z,75.85
2022-08-23T01:27:52.329Z,75.53
2022-08-23T01:30:24.503Z,75.52
2022-08-23T01:33:00.071Z,75.91
2022-08-23T01:35:35.786Z,75.99
2022-08-23T01:38:04.169Z,75.72
2022-08-23T01:40:34.539Z,76.58
2022-08-23T01:43:03.250Z,76.54
2022-08-23T01:45:34.586Z,75.78
2022-08-23T01:48:04.658Z,75.43
2022-08-23T01:50:33.526Z,74.91
2022-08-23T01:53:02.761Z,74.82
2022-08-23T01:55:31.058Z,74.63
2022-08-23T01:58:03.912Z,74.66
2022-08-23T02:00:35.721Z,74.81
2022-08-23T02:03:04.148Z,74.88
2022-08-23T02:05:32.881Z,74.87
2022-08-23T02:08:21.324Z,74.69
2022-08-23T02:10:49.502Z,75.36
2022-08-23T02:13:20.280Z,75.56
2022-08-23T02:15:51.548Z,75.62
2022-08-23T02:18:24.375Z,75.44
2022-08-23T02:20:53.950Z,75.17
2022-08-23T02:23:23.320Z,74.86
2022-08-23T02:25:51.945Z,74.64
2022-08-23T02:28:22.116Z,74.39
2022-08-23T02:30:51.140Z,73.96
2022-08-23T02:33:21.051Z,74.07
2022-08-23T02:35:50.108Z,73.44
2022-08-23T02:38:18.605Z,73.04
2022-08-23T02:40:46.709Z,72.61
2022-08-23T02:43:22.332Z,72.05
2022-08-23T02:45:52.829Z,71.80
2022-08-23T02:48:22.540Z,71.00
2022-08-23T02:50:51.065Z,70.17
2022-08-23T02:53:19.372Z,69.77
2022-08-23T02:55:48.155Z,68.99
2022-08-23T02:58:16.247Z,68.15
2022-08-23T03:00:49.539Z,67.48
2022-08-23T03:03:18.640Z,66.88
2022-08-23T03:05:50.765Z,66.60
2022-08-23T03:08:20.620Z,65.78
2022-08-23T03:10:50.755Z,65.72
2022-08-23T03:13:19.308Z,65.38
2022-08-23T03:15:48.824Z,65.44
2022-08-23T03:18:17.520Z,65.28
2022-08-23T03:20:46.707Z,65.04
2022-08-23T03:23:14.862Z,64.79
2022-08-23T03:25:43.049Z,64.79
2022-08-23T03:28:11.918Z,64.93
2022-08-23T03:30:40.277Z,64.84
2022-08-23T03:33:09.862Z,64.94
2022-08-23T03:35:37.920Z,65.24
2022-08-23T03:38:06.168Z,65.32
2022-08-23T03:40:34.808Z,65.62
2022-08-23T03:43:03.220Z,66.06
2022-08-23T03:45:32.688Z,66.08
2022-08-23T03:48:02.391Z,66.62
2022-08-23T03:50:32.113Z,67.39
2022-08-23T03:53:00.241Z,67.88
2022-08-23T03:55:28.519Z,68.61
2022-08-23T03:57:56.650Z,69.29
2022-08-23T04:00:25.056Z,69.67
2022-08-23T04:02:53.773Z,70.40
2022-08-23T04:05:22.288Z,70.91
2022-08-23T04:07:52.329Z,70.70
2022-08-23T04:10:21.071Z,70.58
2022-08-23T04:12:50.103Z,70.25
2022-08-23T04:15:20.542Z,70.34
2022-08-23T04:17:48.933Z,70.42
2022-08-23T04:20:18.672Z,70.97
2022-08-23T04:22:47.867Z,70.95
2022-08-23T04:25:33.444Z,71.39
2022-08-23T04:28:03.978Z,71.71
2022-08-23T04:30:32.745Z,71.75
2022-08-23T04:33:01.514Z,71.89
2022-08-23T04:35:29.970Z,71.87
2022-08-23T04:37:58.162Z,72.00
2022-08-23T04:40:45.365Z,71.82
2022-08-23T04:43:13.542Z,71.58
2022-08-23T04:45:42.371Z,71.46
2022-08-23T04:48:12.168Z,71.31
2022-08-23T04:50:40.836Z,71.18
2022-08-23T04:53:09.552Z,70.98
2022-08-23T04:55:39.256Z,70.83
2022-08-23T04:58:08.349Z,71.06
2022-08-23T05:00:37.101Z,70.70
2022-08-23T05:03:05.301Z,70.95
2022-08-23T05:05:33.548Z,70.65
2022-08-23T05:08:01.841Z,70.78
2022-08-23T05:10:30.149Z,69.58
2022-08-23T05:12:59.680Z,69.53
2022-08-23T05:15:27.883Z,69.70
2022-08-23T05:17:56.049Z,69.36
2022-08-23T05:20:24.619Z,69.00
2022-08-23T05:22:52.744Z,69.58
2022-08-23T05:25:21.324Z,69.33
2022-08-23T05:27:49.549Z,69.11
2022-08-23T05:30:19.241Z,69.63
2022-08-23T05:32:47.806Z,70.00
2022-08-23T05:35:16.437Z,69.63
2022-08-23T05:37:47.413Z,69.34
2022-08-23T05:40:15.649Z,69.20
2022-08-23T05:42:43.834Z,69.13
2022-08-23T05:45:12.048Z,68.07
2022-08-23T05:47:42.190Z,67.88
2022-08-23T05:50:11.430Z,67.41
2022-08-23T05:52:39.615Z,66.39
2022-08-23T05:55:09.672Z,66.13
2022-08-23T05:57:38.832Z,66.08
2022-08-23T06:00:10.580Z,65.33
2022-08-23T06:02:38.947Z,65.33
2022-08-23T06:05:09.669Z,65.63
2022-08-23T06:07:38.469Z,65.42
2022-08-23T06:10:08.012Z,65.00
2022-08-23T06:12:44.530Z,64.77
2022-08-23T06:15:13.155Z,64.13
2022-08-23T06:17:41.344Z,63.19
2022-08-23T06:20:12.066Z,62.72
2022-08-23T06:22:40.189Z,62.02
2022-08-23T06:25:09.752Z,61.50
2022-08-23T06:27:38.328Z,61.30
2022-08-23T06:30:08.367Z,61.19
2022-08-23T06:32:41.515Z,60.90
2022-08-23T06:35:37.643Z,60.60
2022-08-23T06:37:59.951Z,60.48
2022-08-23T06:40:29.174Z,60.47
2022-08-23T06:42:59.043Z,61.18
2022-08-23T06:45:33.765Z,62.04
2022-08-23T06:48:03.776Z,61.33
2022-08-23T06:50:33.311Z,61.56
2022-08-23T06:53:01.474Z,62.36
2022-08-23T06:55:35.382Z,62.61
2022-08-23T06:58:03.456Z,62.69
2022-08-23T07:00:31.679Z,62.65
2022-08-23T07:03:00.262Z,61.75
2022-08-23T07:05:28.960Z,61.34
2022-08-23T07:07:58.599Z,60.83
2022-08-23T07:10:26.763Z,61.18
2022-08-23T07:12:55.408Z,61.14
2022-08-23T07:15:24.170Z,60.87
2022-08-23T07:17:52.378Z,60.61
2022-08-23T07:20:20.693Z,60.42
2022-08-23T07:22:49.415Z,60.44
2022-08-23T07:32:54.918Z,59.32
